Historique des stations

Station météo de Saint-Maur

Altitude de la station : 155 m







Données météorologiques pour le 23/05/2022
Date
Heure
Températures Humidité Point de rosée Vitesse
du vent
Direction Rafales Windchill Pression Pluviométrie
Cumul
Date
Heure
Températures Humidité Point de rosée Vitesse
du vent
Direction Rafales Windchill Pression Pluviométrie
Cumul
23/05/2022 11:0417.2 °C91.0 %15.7 °C---17.21004 hPa0.6 mm
23/05/2022 11:0416.9 °C92.0 %15.6 °C---16.91004 hPa1.2 mm
23/05/2022 11:0017.3 °C90.0 %15.6 °C---17.31004 hPa0.4 mm
23/05/2022 10:0917.9 °C86.0 %15.5 °C---17.91004 hPa0.0 mm
23/05/2022 10:0918.1 °C85.0 %15.5 °C---18.11004 hPa0.0 mm
23/05/2022 10:0517.9 °C87.0 %15.7 °C---17.91004 hPa0.0 mm
23/05/2022 10:0417.9 °C86.0 %15.5 °C---17.91004 hPa0.0 mm
23/05/2022 10:0317.6 °C89.0 %15.8 °C---17.61004 hPa0.0 mm
23/05/2022 10:0017.9 °C85.0 %15.3 °C---17.91004 hPa0.0 mm
23/05/2022 09:0917.6 °C88.0 %15.6 °C---17.61004 hPa0.0 mm
23/05/2022 09:0917.6 °C88.0 %15.6 °C---17.61004 hPa0.0 mm
23/05/2022 09:0817.8 °C87.0 %15.6 °C---17.81004 hPa0.0 mm
23/05/2022 09:0517.7 °C87.0 %15.5 °C---17.71004 hPa0.0 mm
23/05/2022 09:0517.6 °C88.0 %15.6 °C---17.61004 hPa0.0 mm
23/05/2022 09:0417.8 °C86.0 %15.4 °C---17.81004 hPa0.0 mm
23/05/2022 09:0417.8 °C86.0 %15.4 °C---17.81004 hPa0.0 mm
23/05/2022 09:0117.7 °C87.0 %15.5 °C---17.71004 hPa0.0 mm
23/05/2022 09:0017.9 °C86.0 %15.5 °C---17.91004 hPa0.0 mm
23/05/2022 08:0618.1 °C87.0 %15.9 °C---18.11004 hPa0.0 mm
23/05/2022 08:0417.9 °C86.0 %15.5 °C---17.91004 hPa0.0 mm
23/05/2022 08:0417.9 °C87.0 %15.7 °C---17.91004 hPa0.0 mm
23/05/2022 08:0317.7 °C89.0 %15.9 °C---17.71004 hPa0.0 mm
23/05/2022 08:0018.1 °C86.0 %15.7 °C---18.11004 hPa0.0 mm
23/05/2022 08:0017.9 °C86.0 %15.5 °C---17.91004 hPa0.0 mm
23/05/2022 07:0917.2 °C91.0 %15.7 °C---17.21004 hPa0.0 mm
23/05/2022 07:0917.2 °C90.0 %15.5 °C---17.21004 hPa0.0 mm
23/05/2022 07:0917.5 °C89.0 %15.7 °C---17.51004 hPa0.0 mm
23/05/2022 07:0517.1 °C91.0 %15.6 °C---17.11004 hPa0.0 mm
23/05/2022 07:0517.2 °C91.0 %15.7 °C---17.21004 hPa0.0 mm
23/05/2022 07:0517.3 °C90.0 %15.6 °C---17.31004 hPa0.0 mm
23/05/2022 07:0317.2 °C90.0 %15.5 °C---17.21004 hPa0.0 mm
23/05/2022 07:0017.2 °C91.0 %15.7 °C---17.11004 hPa0.0 mm
23/05/2022 06:0817.4 °C92.0 %16.1 °C---17.41005 hPa0.0 mm
23/05/2022 06:0417.5 °C92.0 %16.2 °C---17.51005 hPa0.0 mm
23/05/2022 06:0417.4 °C92.0 %16.1 °C---17.41005 hPa0.0 mm
23/05/2022 06:0417.2 °C91.0 %15.7 °C---17.21005 hPa0.0 mm
23/05/2022 06:0017.6 °C92.0 %16.3 °C---17.61005 hPa0.0 mm
23/05/2022 06:0017.3 °C91.0 %15.8 °C---17.31005 hPa0.0 mm
23/05/2022 05:0918.1 °C93.0 %16.9 °C---18.11005 hPa0.0 mm
23/05/2022 05:0918.0 °C93.0 %16.9 °C---17.91005 hPa0.0 mm
23/05/2022 05:0817.8 °C92.0 %16.5 °C---17.81005 hPa0.0 mm
23/05/2022 05:0518.1 °C94.0 %17.1 °C---18.11005 hPa0.0 mm
23/05/2022 05:0517.8 °C92.0 %16.5 °C---17.81005 hPa0.0 mm
23/05/2022 05:0318.1 °C95.0 %17.3 °C---18.11005 hPa0.0 mm
23/05/2022 04:0918.2 °C95.0 %17.4 °C---18.21005 hPa0.0 mm
23/05/2022 04:0918.1 °C95.0 %17.3 °C---18.11005 hPa0.0 mm
23/05/2022 04:0818.3 °C95.0 %17.5 °C---18.31005 hPa0.0 mm
23/05/2022 04:0518.2 °C95.0 %17.4 °C---18.21005 hPa0.0 mm
23/05/2022 04:0418.8 °C93.0 %17.6 °C---[wind0chil1005 hPa0.0 mm
23/05/2022 04:0418.3 °C95.0 %17.5 °C---18.31005 hPa0.0 mm
23/05/2022 04:0318.4 °C95.0 %17.6 °C---18.41005 hPa0.0 mm
23/05/2022 04:0018.8 °C93.0 %17.6 °C---[wind0chil1005 hPa0.0 mm
23/05/2022 04:0018.4 °C95.0 %17.6 °C---18.41005 hPa0.0 mm
23/05/2022 03:0818.8 °C93.0 %17.6 °C---18.81005 hPa0.0 mm
23/05/2022 03:0719.2 °C92.0 %17.9 °C---19.21005 hPa0.0 mm
23/05/2022 03:0519.2 °C92.0 %17.9 °C---19.21005 hPa0.0 mm
23/05/2022 03:0418.9 °C92.0 %17.6 °C---18.91005 hPa0.0 mm
23/05/2022 03:0418.8 °C93.0 %17.6 °C---18.81005 hPa0.0 mm
23/05/2022 03:0319.2 °C91.0 %17.7 °C---19.21005 hPa0.0 mm
23/05/2022 03:0019.1 °C92.0 %17.8 °C---19.11004 hPa0.0 mm
23/05/2022 02:0917.8 °C93.0 %16.7 °C---17.81005 hPa0.0 mm
23/05/2022 02:0917.8 °C93.0 %16.7 °C---17.81005 hPa0.0 mm
23/05/2022 02:0919.1 °C91.0 %17.6 °C---19.11005 hPa0.0 mm
23/05/2022 02:0518.2 °C92.0 %16.9 °C---17.81005 hPa0.0 mm
23/05/2022 02:0417.8 °C93.0 %16.7 °C---17.81005 hPa0.0 mm
23/05/2022 02:0317.8 °C93.0 %16.7 °C---17.81005 hPa0.0 mm
23/05/2022 02:0217.9 °C92.0 %16.6 °C---18.41005 hPa0.0 mm
23/05/2022 02:0017.9 °C92.0 %16.6 °C---18.41005 hPa0.0 mm
23/05/2022 01:4818.1 °C92.0 %16.8 °C---18.41005 hPa0.0 mm
23/05/2022 01:4418.1 °C92.0 %16.8 °C---18.41005 hPa0.0 mm
23/05/2022 01:3418.1 °C92.0 %16.8 °C---18.41005 hPa0.0 mm
23/05/2022 01:3018.1 °C92.0 %16.8 °C---18.41005 hPa0.0 mm
23/05/2022 01:1818.4 °C91.0 %16.9 °C---[wind0chil1005 hPa0.0 mm
23/05/2022 01:1618.4 °C91.0 %16.9 °C---[wind0chil1005 hPa0.0 mm
23/05/2022 01:0318.4 °C91.0 %16.9 °C---[wind0chil1005 hPa0.0 mm
23/05/2022 00:5918.4 °C91.0 %16.9 °C---[wind0chil1005 hPa0.0 mm
23/05/2022 00:4918.4 °C91.0 %16.9 °C---18.41005 hPa0.0 mm
23/05/2022 00:4518.4 °C91.0 %16.9 °C---[wind0chil1005 hPa0.0 mm
23/05/2022 00:3318.5 °C91.0 %17.0 °C---18.51004 hPa0.0 mm
23/05/2022 00:2918.6 °C91.0 %17.1 °C---18.61004 hPa0.0 mm
23/05/2022 00:1918.8 °C92.0 %17.5 °C---18.81005 hPa0.0 mm
23/05/2022 00:1418.9 °C92.0 %17.6 °C---18.91004 hPa0.0 mm
23/05/2022 00:0418.9 °C91.0 %17.4 °C---18.91005 hPa0.0 mm
23/05/2022 00:0018.9 °C91.0 %17.4 °C---18.91005 hPa0.0 mm


Minima :

Température : 16.9 °C
Humidité : 85.0 %
Point de rosée : 15.3 °C
Vent moyen : - km/h
Windchill : [wind0chil
Pression atm. : 1004 hPa
Maxima :

Température : 19.2 °C
Humidité : 95.0 %
Point de rosée : 17.9 °C
Vent moyen : 0 km/h
Windchill : 19.2
Pression atm. : 1005 hPa
Rafales max : - km/h
Cumul de pluie sur 24H : 1.2 mm

Saint-Maur est une commune du département Indre (36).
La station météorologique du réseau de l'association la plus proche de Saint-Maur est celle de Etrechet



Icône Facebook Association Météo Centre Icône Twitter Association Météo Centre Icône Chaîne Youtube Association Météo Centre Icône contact Association Météo Centre Icône Insta Association Météo Centre